DIRECCIÓN GENERAL DE AERONÁUTICA CIVIL
DIRECCIÓN METEOROLÓGICA DE CHILE
INFORMACIÓN METAR Y TAF

FIR SANTIAGO

Estación: SCSE
METAR SCSE 061800Z 29010KT CAVOK 18/10 Q1011=

TAF SCSE 061621Z 0618/0718 28010KT CAVOK TX18/0619Z TN10/0710Z BECMG 0700/0702 34004KT BECMG 0706/0708 10004KT TEMPO 0708/0712 SCT015 BECMG 0712/0714 26005KT=

Estación: SCER
NIL=

NIL=

Estación: SCRD
METAR SCRD 061800Z 31004KT CAVOK 22/07 Q1012=

TAF SCRD 061030Z 0612/0624 18004KT CAVOK TX19/0618Z TN04/0612Z TEMPO 0612/0614 VRB02KT BECMG 0615/0617 29005KT=

Estación: SCVM
METAR SCVM 061800Z 33009KT CAVOK 18/08 Q1012=

TAF SCVM 061622Z 0618/0718 32008KT CAVOK TX18/0619Z TN06/0710Z BECMG 0622/0624 27006KT BECMG 0702/0704 13004KT TEMPO 0706/0712 VRB02KT BECMG 0712/0714 34006KT=

Estación: SCTB
METAR SCTB 061800Z 22005KT 7000 SKC 25/05 Q1013=

TAF SCTB 061104Z 0612/0624 00000KT 7000 NSC TX24/0618Z TN06/0612Z BECMG 0614/0616 21006KT=

Estación: SCEL
METAR SCEL 061800Z 19004KT 120V250 8000 SKC 25/M00 Q1012 NOSIG=

TAF COR SCEL 061635Z 0618/0718 VRB02KT 8000 NSC TX24/0619Z TN05/0710Z BECMG 0619/0621 18010KT CAVOK BECMG 0702/0704 15006KT TEMPO 0706/ 0712 VRB02KT 5000 HZ BECMG 0714/0716 17008KT=

Estación: SCSN
METAR SCSN 061800Z 26007KT CAVOK 16/09 Q1012=

TAF SCSN 061100Z 0612/0624 15004KT CAVOK TX19/0618Z TN04/0612Z TEMPO 0612/0614 VRB02KT BECMG 0616/0618 24012KT=

Estación: SCRG
METAR SCRG 052000Z 15011KT CAVOK 21/05 Q1016=

TAF SCRG 061030Z 0612/0624 18005KT CAVOK TX22/0618Z TN04/0612Z TEMPO 0612/0614 5000 HZ BECMG 0616/0618 20012KT=

Estación: SCIC
METAR SCIC 061800Z VRB04KT CAVOK 19/07 Q1012=

TAF SCIC 061030Z 0612/0624 20005KT CAVOK TX18/0618Z TN02/0612Z TEMPO 0612/0615 3000 BR BKN003 BECMG 0615/0617 21010KT=

Estación: SCCH
METAR SCCH 061800Z 21002KT CAVOK 16/05 Q1014=

TAF SCCH 061030Z 0612/0624 20005KT CAVOK TX20/0618Z TN02/0612Z TEMPO 0612/0615 3000 BR BKN002 BECMG 0616/0618 19012KT=

Estación: SCIE
METAR SCIE 061800Z 24009KT CAVOK 17/07 Q1014=

TAF SCIE 061624Z 0618/0718 20008KT CAVOK TX18/0618Z TN04/0710Z BECMG 0702/0704 15004KT TEMPO 0706/0712 VRB02KT BECMG 0714/0716 35006KT=

Estación: SCGE
METAR SCGE 061800Z 18007KT CAVOK 20/04 Q1016=

TAF SCGE 061030Z 0612/0624 19006KT CAVOK TX18/0618Z TN02/0512Z BECMG 0616/0618 20015KT=


Volver